sensor_id;sensor_type;location;lat;lon;timestamp;P1;durP1;ratioP1;P2;durP2;ratioP2
34924;SDS011;21130;51.728;8.748;2023-08-12T00:02:10;6.72;;;5.30;;
34924;SDS011;21130;51.728;8.748;2023-08-12T00:04:36;10.88;;;5.50;;
34924;SDS011;21130;51.728;8.748;2023-08-12T00:07:04;7.55;;;6.68;;
34924;SDS011;21130;51.728;8.748;2023-08-12T00:09:31;7.00;;;6.30;;
34924;SDS011;21130;51.728;8.748;2023-08-12T00:11:58;7.00;;;6.20;;
34924;SDS011;21130;51.728;8.748;2023-08-12T00:14:24;9.15;;;6.70;;
34924;SDS011;21130;51.728;8.748;2023-08-12T00:16:50;9.48;;;6.32;;
34924;SDS011;21130;51.728;8.748;2023-08-12T00:19:17;6.88;;;5.70;;
34924;SDS011;21130;51.728;8.748;2023-08-12T00:21:43;6.43;;;5.25;;
34924;SDS011;21130;51.728;8.748;2023-08-12T00:24:11;6.88;;;5.82;;
34924;SDS011;21130;51.728;8.748;2023-08-12T00:26:38;5.57;;;5.07;;
34924;SDS011;21130;51.728;8.748;2023-08-12T00:29:04;6.43;;;5.57;;
34924;SDS011;21130;51.728;8.748;2023-08-12T00:31:31;8.00;;;5.65;;
34924;SDS011;21130;51.728;8.748;2023-08-12T00:33:57;5.95;;;5.38;;
34924;SDS011;21130;51.728;8.748;2023-08-12T00:36:24;7.30;;;4.95;;
34924;SDS011;21130;51.728;8.748;2023-08-12T00:38:50;6.35;;;4.90;;
34924;SDS011;21130;51.728;8.748;2023-08-12T00:41:18;6.65;;;5.25;;
34924;SDS011;21130;51.728;8.748;2023-08-12T00:43:44;7.22;;;4.82;;
34924;SDS011;21130;51.728;8.748;2023-08-12T00:46:10;5.38;;;4.30;;
34924;SDS011;21130;51.728;8.748;2023-08-12T00:48:37;6.93;;;4.07;;
34924;SDS011;21130;51.728;8.748;2023-08-12T00:51:03;7.80;;;3.97;;
34924;SDS011;21130;51.728;8.748;2023-08-12T00:53:30;4.65;;;3.90;;
34924;SDS011;21130;51.728;8.748;2023-08-12T00:55:57;7.05;;;4.45;;
34924;SDS011;21130;51.728;8.748;2023-08-12T00:58:25;8.15;;;4.60;;
34924;SDS011;21130;51.728;8.748;2023-08-12T01:00:51;7.82;;;5.18;;
34924;SDS011;21130;51.728;8.748;2023-08-12T01:03:18;7.35;;;4.65;;
34924;SDS011;21130;51.728;8.748;2023-08-12T01:05:45;5.80;;;5.18;;
34924;SDS011;21130;51.728;8.748;2023-08-12T01:08:12;8.27;;;5.32;;
34924;SDS011;21130;51.728;8.748;2023-08-12T01:10:39;7.82;;;5.22;;
34924;SDS011;21130;51.728;8.748;2023-08-12T01:13:13;7.32;;;5.00;;
34924;SDS011;21130;51.728;8.748;2023-08-12T01:15:47;9.55;;;5.47;;
34924;SDS011;21130;51.728;8.748;2023-08-12T01:18:19;9.00;;;5.53;;
34924;SDS011;21130;51.728;8.748;2023-08-12T01:20:46;6.07;;;5.47;;
34924;SDS011;21130;51.728;8.748;2023-08-12T01:23:15;9.07;;;6.35;;
34924;SDS011;21130;51.728;8.748;2023-08-12T01:25:41;10.10;;;6.20;;
34924;SDS011;21130;51.728;8.748;2023-08-12T01:28:08;9.63;;;6.30;;
34924;SDS011;21130;51.728;8.748;2023-08-12T01:30:36;10.40;;;6.82;;
34924;SDS011;21130;51.728;8.748;2023-08-12T01:33:12;12.27;;;7.25;;
34924;SDS011;21130;51.728;8.748;2023-08-12T01:35:44;12.80;;;6.85;;
34924;SDS011;21130;51.728;8.748;2023-08-12T01:38:17;9.30;;;5.93;;
34924;SDS011;21130;51.728;8.748;2023-08-12T01:40:45;9.65;;;7.28;;
34924;SDS011;21130;51.728;8.748;2023-08-12T01:43:13;11.98;;;6.63;;
34924;SDS011;21130;51.728;8.748;2023-08-12T01:45:40;12.57;;;7.75;;
34924;SDS011;21130;51.728;8.748;2023-08-12T01:48:09;12.05;;;7.00;;
34924;SDS011;21130;51.728;8.748;2023-08-12T01:50:35;11.40;;;7.75;;
34924;SDS011;21130;51.728;8.748;2023-08-12T01:53:02;9.82;;;7.43;;
34924;SDS011;21130;51.728;8.748;2023-08-12T01:55:30;11.25;;;8.00;;
34924;SDS011;21130;51.728;8.748;2023-08-12T01:57:56;12.32;;;9.20;;
34924;SDS011;21130;51.728;8.748;2023-08-12T02:00:23;13.00;;;9.45;;
34924;SDS011;21130;51.728;8.748;2023-08-12T02:02:49;15.35;;;8.43;;
34924;SDS011;21130;51.728;8.748;2023-08-12T02:05:16;14.02;;;9.75;;
34924;SDS011;21130;51.728;8.748;2023-08-12T02:07:42;13.30;;;9.90;;
34924;SDS011;21130;51.728;8.748;2023-08-12T02:10:10;13.93;;;10.15;;
34924;SDS011;21130;51.728;8.748;2023-08-12T02:12:38;16.80;;;12.43;;
34924;SDS011;21130;51.728;8.748;2023-08-12T02:15:04;17.90;;;11.77;;
34924;SDS011;21130;51.728;8.748;2023-08-12T02:17:33;17.42;;;11.48;;
34924;SDS011;21130;51.728;8.748;2023-08-12T02:20:00;18.25;;;12.48;;
34924;SDS011;21130;51.728;8.748;2023-08-12T02:22:28;14.65;;;11.75;;
34924;SDS011;21130;51.728;8.748;2023-08-12T02:24:55;19.95;;;13.48;;
34924;SDS011;21130;51.728;8.748;2023-08-12T02:27:22;19.10;;;13.95;;
34924;SDS011;21130;51.728;8.748;2023-08-12T02:29:49;18.15;;;14.38;;
34924;SDS011;21130;51.728;8.748;2023-08-12T02:44:38;19.33;;;15.60;;
34924;SDS011;21130;51.728;8.748;2023-08-12T02:47:06;19.45;;;14.15;;
34924;SDS011;21130;51.728;8.748;2023-08-12T02:49:33;22.15;;;18.63;;
34924;SDS011;21130;51.728;8.748;2023-08-12T02:51:59;24.15;;;18.45;;
34924;SDS011;21130;51.728;8.748;2023-08-12T02:54:26;23.35;;;18.42;;
34924;SDS011;21130;51.728;8.748;2023-08-12T02:56:52;27.95;;;19.90;;
34924;SDS011;21130;51.728;8.748;2023-08-12T02:59:18;21.85;;;18.98;;
34924;SDS011;21130;51.728;8.748;2023-08-12T03:01:45;22.70;;;19.92;;
34924;SDS011;21130;51.728;8.748;2023-08-12T03:04:13;29.60;;;21.80;;
34924;SDS011;21130;51.728;8.748;2023-08-12T03:06:39;28.10;;;19.75;;
34924;SDS011;21130;51.728;8.748;2023-08-12T03:09:06;29.08;;;21.98;;
34924;SDS011;21130;51.728;8.748;2023-08-12T03:11:32;28.70;;;22.00;;
34924;SDS011;21130;51.728;8.748;2023-08-12T03:13:59;24.38;;;19.38;;
34924;SDS011;21130;51.728;8.748;2023-08-12T03:16:25;27.85;;;22.25;;
34924;SDS011;21130;51.728;8.748;2023-08-12T03:18:52;22.05;;;18.45;;
34924;SDS011;21130;51.728;8.748;2023-08-12T03:21:20;28.27;;;21.50;;
34924;SDS011;21130;51.728;8.748;2023-08-12T03:23:47;26.73;;;19.85;;
34924;SDS011;21130;51.728;8.748;2023-08-12T03:26:13;22.45;;;18.45;;
34924;SDS011;21130;51.728;8.748;2023-08-12T03:28:43;28.65;;;20.80;;
34924;SDS011;21130;51.728;8.748;2023-08-12T03:31:09;26.52;;;21.58;;
34924;SDS011;21130;51.728;8.748;2023-08-12T03:33:36;25.85;;;21.35;;
34924;SDS011;21130;51.728;8.748;2023-08-12T03:36:02;28.40;;;22.23;;
34924;SDS011;21130;51.728;8.748;2023-08-12T03:38:30;31.35;;;24.23;;
34924;SDS011;21130;51.728;8.748;2023-08-12T03:40:57;30.90;;;25.35;;
34924;SDS011;21130;51.728;8.748;2023-08-12T03:43:23;28.85;;;23.15;;
34924;SDS011;21130;51.728;8.748;2023-08-12T03:45:50;28.63;;;23.48;;
34924;SDS011;21130;51.728;8.748;2023-08-12T03:48:18;31.90;;;26.90;;
34924;SDS011;21130;51.728;8.748;2023-08-12T03:50:45;31.42;;;25.13;;
34924;SDS011;21130;51.728;8.748;2023-08-12T03:53:12;34.95;;;27.92;;
34924;SDS011;21130;51.728;8.748;2023-08-12T03:55:40;34.30;;;27.75;;
34924;SDS011;21130;51.728;8.748;2023-08-12T03:58:07;29.30;;;23.88;;
34924;SDS011;21130;51.728;8.748;2023-08-12T04:00:33;32.22;;;23.67;;
34924;SDS011;21130;51.728;8.748;2023-08-12T04:03:00;29.83;;;22.77;;
34924;SDS011;21130;51.728;8.748;2023-08-12T04:05:26;27.98;;;22.10;;
34924;SDS011;21130;51.728;8.748;2023-08-12T04:07:53;36.88;;;29.33;;
34924;SDS011;21130;51.728;8.748;2023-08-12T04:10:19;29.55;;;24.63;;
34924;SDS011;21130;51.728;8.748;2023-08-12T04:12:47;30.50;;;24.60;;
34924;SDS011;21130;51.728;8.748;2023-08-12T04:15:14;29.83;;;23.67;;
34924;SDS011;21130;51.728;8.748;2023-08-12T04:17:41;33.80;;;27.35;;
34924;SDS011;21130;51.728;8.748;2023-08-12T04:20:07;32.17;;;26.27;;
34924;SDS011;21130;51.728;8.748;2023-08-12T04:22:34;38.47;;;29.80;;
34924;SDS011;21130;51.728;8.748;2023-08-12T04:25:01;34.72;;;27.95;;
34924;SDS011;21130;51.728;8.748;2023-08-12T04:27:28;34.45;;;27.58;;
34924;SDS011;21130;51.728;8.748;2023-08-12T04:29:56;27.67;;;22.45;;
34924;SDS011;21130;51.728;8.748;2023-08-12T04:32:22;24.35;;;20.85;;
34924;SDS011;21130;51.728;8.748;2023-08-12T04:34:48;29.65;;;24.80;;
34924;SDS011;21130;51.728;8.748;2023-08-12T04:37:15;24.13;;;20.73;;
34924;SDS011;21130;51.728;8.748;2023-08-12T04:39:41;25.20;;;21.85;;
34924;SDS011;21130;51.728;8.748;2023-08-12T04:42:08;24.30;;;21.70;;
34924;SDS011;21130;51.728;8.748;2023-08-12T04:44:35;29.20;;;22.42;;
34924;SDS011;21130;51.728;8.748;2023-08-12T04:47:02;27.83;;;23.95;;
34924;SDS011;21130;51.728;8.748;2023-08-12T04:49:30;36.75;;;30.08;;
34924;SDS011;21130;51.728;8.748;2023-08-12T04:51:56;41.80;;;32.38;;
34924;SDS011;21130;51.728;8.748;2023-08-12T04:54:26;37.97;;;31.50;;
34924;SDS011;21130;51.728;8.748;2023-08-12T04:56:52;31.73;;;26.25;;
34924;SDS011;21130;51.728;8.748;2023-08-12T04:59:19;44.33;;;32.70;;
34924;SDS011;21130;51.728;8.748;2023-08-12T05:01:45;37.50;;;30.67;;
34924;SDS011;21130;51.728;8.748;2023-08-12T05:04:13;31.25;;;27.10;;
34924;SDS011;21130;51.728;8.748;2023-08-12T05:06:40;43.35;;;31.30;;
34924;SDS011;21130;51.728;8.748;2023-08-12T05:09:06;36.45;;;30.05;;
34924;SDS011;21130;51.728;8.748;2023-08-12T05:11:33;50.40;;;37.42;;
34924;SDS011;21130;51.728;8.748;2023-08-12T05:13:59;44.33;;;35.53;;
34924;SDS011;21130;51.728;8.748;2023-08-12T05:16:26;50.33;;;39.15;;
34924;SDS011;21130;51.728;8.748;2023-08-12T05:18:54;46.70;;;36.40;;
34924;SDS011;21130;51.728;8.748;2023-08-12T05:21:21;47.13;;;36.00;;
34924;SDS011;21130;51.728;8.748;2023-08-12T05:23:48;42.90;;;36.25;;
34924;SDS011;21130;51.728;8.748;2023-08-12T05:26:15;47.00;;;37.45;;
34924;SDS011;21130;51.728;8.748;2023-08-12T05:28:41;47.78;;;38.60;;
34924;SDS011;21130;51.728;8.748;2023-08-12T05:31:08;49.75;;;38.25;;
34924;SDS011;21130;51.728;8.748;2023-08-12T05:33:34;50.75;;;37.67;;
34924;SDS011;21130;51.728;8.748;2023-08-12T05:36:01;48.70;;;36.22;;
34924;SDS011;21130;51.728;8.748;2023-08-12T05:38:30;44.28;;;37.03;;
34924;SDS011;21130;51.728;8.748;2023-08-12T05:40:56;46.13;;;36.25;;
34924;SDS011;21130;51.728;8.748;2023-08-12T05:43:23;42.47;;;33.35;;
34924;SDS011;21130;51.728;8.748;2023-08-12T05:45:49;41.88;;;32.85;;
34924;SDS011;21130;51.728;8.748;2023-08-12T05:48:16;54.10;;;38.72;;
34924;SDS011;21130;51.728;8.748;2023-08-12T05:50:43;54.05;;;40.67;;
34924;SDS011;21130;51.728;8.748;2023-08-12T05:53:10;54.88;;;40.97;;
34924;SDS011;21130;51.728;8.748;2023-08-12T05:55:38;52.13;;;38.90;;
34924;SDS011;21130;51.728;8.748;2023-08-12T05:58:05;52.50;;;37.55;;
34924;SDS011;21130;51.728;8.748;2023-08-12T06:00:31;55.85;;;40.85;;
34924;SDS011;21130;51.728;8.748;2023-08-12T06:02:58;60.40;;;42.45;;
34924;SDS011;21130;51.728;8.748;2023-08-12T06:05:25;44.40;;;35.60;;
34924;SDS011;21130;51.728;8.748;2023-08-12T06:07:51;49.60;;;38.08;;
34924;SDS011;21130;51.728;8.748;2023-08-12T06:10:18;48.03;;;38.28;;
34924;SDS011;21130;51.728;8.748;2023-08-12T06:12:46;49.33;;;38.17;;
34924;SDS011;21130;51.728;8.748;2023-08-12T06:15:12;41.15;;;35.85;;
34924;SDS011;21130;51.728;8.748;2023-08-12T06:17:39;35.65;;;31.70;;
34924;SDS011;21130;51.728;8.748;2023-08-12T06:20:06;37.72;;;31.67;;
34924;SDS011;21130;51.728;8.748;2023-08-12T06:22:33;35.72;;;30.88;;
34924;SDS011;21130;51.728;8.748;2023-08-12T06:24:59;36.00;;;30.20;;
34924;SDS011;21130;51.728;8.748;2023-08-12T06:27:26;35.85;;;31.80;;
34924;SDS011;21130;51.728;8.748;2023-08-12T06:29:54;34.42;;;30.08;;
34924;SDS011;21130;51.728;8.748;2023-08-12T06:32:20;31.58;;;28.38;;
34924;SDS011;21130;51.728;8.748;2023-08-12T06:34:47;28.17;;;25.13;;
34924;SDS011;21130;51.728;8.748;2023-08-12T06:37:13;26.60;;;23.80;;
34924;SDS011;21130;51.728;8.748;2023-08-12T06:39:40;24.98;;;22.38;;
34924;SDS011;21130;51.728;8.748;2023-08-12T06:42:06;22.73;;;20.40;;
34924;SDS011;21130;51.728;8.748;2023-08-12T06:44:33;22.50;;;20.30;;
34924;SDS011;21130;51.728;8.748;2023-08-12T06:47:00;22.85;;;20.55;;
34924;SDS011;21130;51.728;8.748;2023-08-12T06:49:27;22.35;;;20.15;;
34924;SDS011;21130;51.728;8.748;2023-08-12T06:51:53;22.83;;;20.52;;
34924;SDS011;21130;51.728;8.748;2023-08-12T06:54:20;21.48;;;19.38;;
34924;SDS011;21130;51.728;8.748;2023-08-12T06:56:48;24.23;;;21.10;;
34924;SDS011;21130;51.728;8.748;2023-08-12T06:59:14;22.90;;;20.60;;
34924;SDS011;21130;51.728;8.748;2023-08-12T07:01:40;20.95;;;18.95;;
34924;SDS011;21130;51.728;8.748;2023-08-12T07:04:08;21.05;;;19.00;;
34924;SDS011;21130;51.728;8.748;2023-08-12T07:06:35;20.02;;;18.13;;
34924;SDS011;21130;51.728;8.748;2023-08-12T07:09:02;19.88;;;17.77;;
34924;SDS011;21130;51.728;8.748;2023-08-12T07:11:28;19.02;;;17.23;;
34924;SDS011;21130;51.728;8.748;2023-08-12T07:13:55;19.48;;;17.55;;
34924;SDS011;21130;51.728;8.748;2023-08-12T07:16:21;19.70;;;17.90;;
34924;SDS011;21130;51.728;8.748;2023-08-12T07:18:48;19.35;;;17.45;;
34924;SDS011;21130;51.728;8.748;2023-08-12T07:21:16;19.30;;;17.50;;
34924;SDS011;21130;51.728;8.748;2023-08-12T07:23:42;19.00;;;17.20;;
34924;SDS011;21130;51.728;8.748;2023-08-12T07:26:09;19.40;;;17.60;;
34924;SDS011;21130;51.728;8.748;2023-08-12T07:28:36;19.73;;;17.73;;
34924;SDS011;21130;51.728;8.748;2023-08-12T07:31:02;18.98;;;17.17;;
34924;SDS011;21130;51.728;8.748;2023-08-12T07:33:29;17.75;;;16.15;;
34924;SDS011;21130;51.728;8.748;2023-08-12T07:35:55;16.58;;;15.18;;
34924;SDS011;21130;51.728;8.748;2023-08-12T07:38:23;15.88;;;14.48;;
34924;SDS011;21130;51.728;8.748;2023-08-12T07:40:50;14.40;;;13.13;;
34924;SDS011;21130;51.728;8.748;2023-08-12T07:43:16;13.35;;;12.05;;
34924;SDS011;21130;51.728;8.748;2023-08-12T07:45:43;12.77;;;11.68;;
34924;SDS011;21130;51.728;8.748;2023-08-12T07:48:09;11.75;;;10.55;;
34924;SDS011;21130;51.728;8.748;2023-08-12T07:50:36;10.10;;;9.20;;
34924;SDS011;21130;51.728;8.748;2023-08-12T07:53:02;9.70;;;8.45;;
34924;SDS011;21130;51.728;8.748;2023-08-12T07:55:31;7.53;;;6.85;;
34924;SDS011;21130;51.728;8.748;2023-08-12T07:57:57;7.10;;;6.50;;
34924;SDS011;21130;51.728;8.748;2023-08-12T08:00:24;6.22;;;5.70;;
34924;SDS011;21130;51.728;8.748;2023-08-12T08:02:50;6.82;;;6.22;;
34924;SDS011;21130;51.728;8.748;2023-08-12T08:05:17;5.85;;;5.32;;
34924;SDS011;21130;51.728;8.748;2023-08-12T08:07:43;5.53;;;5.10;;
34924;SDS011;21130;51.728;8.748;2023-08-12T08:10:10;5.18;;;4.78;;
34924;SDS011;21130;51.728;8.748;2023-08-12T08:12:38;5.72;;;5.15;;
34924;SDS011;21130;51.728;8.748;2023-08-12T08:15:05;5.13;;;4.72;;
34924;SDS011;21130;51.728;8.748;2023-08-12T08:17:32;5.47;;;4.97;;
34924;SDS011;21130;51.728;8.748;2023-08-12T08:19:58;5.10;;;4.70;;
34924;SDS011;21130;51.728;8.748;2023-08-12T08:22:25;5.00;;;4.60;;
34924;SDS011;21130;51.728;8.748;2023-08-12T08:24:52;4.93;;;4.53;;
34924;SDS011;21130;51.728;8.748;2023-08-12T08:27:18;5.82;;;5.30;;
34924;SDS011;21130;51.728;8.748;2023-08-12T08:29:46;6.28;;;5.78;;
34924;SDS011;21130;51.728;8.748;2023-08-12T08:32:12;6.25;;;5.57;;
34924;SDS011;21130;51.728;8.748;2023-08-12T08:34:39;6.70;;;5.63;;
34924;SDS011;21130;51.728;8.748;2023-08-12T08:37:06;5.95;;;5.35;;
34924;SDS011;21130;51.728;8.748;2023-08-12T08:39:32;5.80;;;5.35;;
34924;SDS011;21130;51.728;8.748;2023-08-12T08:41:59;5.50;;;5.03;;
34924;SDS011;21130;51.728;8.748;2023-08-12T08:44:27;5.82;;;5.30;;
34924;SDS011;21130;51.728;8.748;2023-08-12T08:46:57;6.38;;;5.53;;
34924;SDS011;21130;51.728;8.748;2023-08-12T08:49:25;6.40;;;5.60;;
34924;SDS011;21130;51.728;8.748;2023-08-12T08:51:52;6.57;;;5.97;;
34924;SDS011;21130;51.728;8.748;2023-08-12T08:54:19;5.93;;;5.43;;
34924;SDS011;21130;51.728;8.748;2023-08-12T08:56:45;5.45;;;4.95;;
34924;SDS011;21130;51.728;8.748;2023-08-12T08:59:15;5.32;;;4.63;;
34924;SDS011;21130;51.728;8.748;2023-08-12T09:01:42;5.00;;;4.43;;
34924;SDS011;21130;51.728;8.748;2023-08-12T09:04:13;9.00;;;5.93;;
34924;SDS011;21130;51.728;8.748;2023-08-12T09:06:41;7.07;;;5.97;;
34924;SDS011;21130;51.728;8.748;2023-08-12T09:09:10;5.30;;;4.90;;
34924;SDS011;21130;51.728;8.748;2023-08-12T09:11:39;4.57;;;4.03;;
34924;SDS011;21130;51.728;8.748;2023-08-12T09:14:05;6.85;;;4.03;;
34924;SDS011;21130;51.728;8.748;2023-08-12T09:16:32;4.68;;;4.05;;
34924;SDS011;21130;51.728;8.748;2023-08-12T09:18:59;4.97;;;4.00;;
34924;SDS011;21130;51.728;8.748;2023-08-12T09:21:27;3.60;;;3.30;;
34924;SDS011;21130;51.728;8.748;2023-08-12T09:23:53;4.78;;;3.45;;
34924;SDS011;21130;51.728;8.748;2023-08-12T09:26:21;5.00;;;2.78;;
34924;SDS011;21130;51.728;8.748;2023-08-12T09:28:48;2.78;;;2.30;;
34924;SDS011;21130;51.728;8.748;2023-08-12T09:31:21;2.85;;;2.10;;
34924;SDS011;21130;51.728;8.748;2023-08-12T09:33:49;2.97;;;2.33;;
34924;SDS011;21130;51.728;8.748;2023-08-12T09:36:16;2.53;;;1.90;;
34924;SDS011;21130;51.728;8.748;2023-08-12T09:38:44;2.90;;;2.08;;
34924;SDS011;21130;51.728;8.748;2023-08-12T09:41:11;3.17;;;1.70;;
34924;SDS011;21130;51.728;8.748;2023-08-12T09:43:39;1.88;;;1.55;;
34924;SDS011;21130;51.728;8.748;2023-08-12T09:46:06;2.60;;;1.98;;
34924;SDS011;21130;51.728;8.748;2023-08-12T09:48:36;1.83;;;1.60;;
34924;SDS011;21130;51.728;8.748;2023-08-12T09:51:03;2.85;;;1.95;;
34924;SDS011;21130;51.728;8.748;2023-08-12T09:53:31;2.85;;;1.70;;
34924;SDS011;21130;51.728;8.748;2023-08-12T09:55:59;2.00;;;1.80;;
34924;SDS011;21130;51.728;8.748;2023-08-12T09:58:32;4.93;;;1.63;;
34924;SDS011;21130;51.728;8.748;2023-08-12T10:13:26;2.58;;;1.80;;
34924;SDS011;21130;51.728;8.748;2023-08-12T10:15:52;1.88;;;1.50;;
34924;SDS011;21130;51.728;8.748;2023-08-12T10:18:19;3.38;;;1.90;;
34924;SDS011;21130;51.728;8.748;2023-08-12T10:20:47;2.25;;;1.40;;
34924;SDS011;21130;51.728;8.748;2023-08-12T10:23:15;1.67;;;1.40;;
34924;SDS011;21130;51.728;8.748;2023-08-12T10:25:43;1.65;;;1.55;;
34924;SDS011;21130;51.728;8.748;2023-08-12T10:28:14;1.50;;;1.40;;
34924;SDS011;21130;51.728;8.748;2023-08-12T10:30:45;2.20;;;1.20;;
34924;SDS011;21130;51.728;8.748;2023-08-12T10:33:13;1.20;;;1.20;;
34924;SDS011;21130;51.728;8.748;2023-08-12T10:35:42;1.20;;;1.10;;
34924;SDS011;21130;51.728;8.748;2023-08-12T10:38:10;1.30;;;1.20;;
34924;SDS011;21130;51.728;8.748;2023-08-12T10:40:39;1.30;;;1.20;;
34924;SDS011;21130;51.728;8.748;2023-08-12T10:43:05;1.50;;;1.33;;
34924;SDS011;21130;51.728;8.748;2023-08-12T10:45:42;1.10;;;1.10;;
34924;SDS011;21130;51.728;8.748;2023-08-12T10:48:15;1.65;;;1.05;;
34924;SDS011;21130;51.728;8.748;2023-08-12T10:50:44;1.33;;;1.17;;
34924;SDS011;21130;51.728;8.748;2023-08-12T10:53:21;1.52;;;1.30;;
34924;SDS011;21130;51.728;8.748;2023-08-12T10:55:49;2.92;;;1.30;;
34924;SDS011;21130;51.728;8.748;2023-08-12T10:58:24;1.27;;;1.13;;
34924;SDS011;21130;51.728;8.748;2023-08-12T11:00:53;1.40;;;1.20;;
34924;SDS011;21130;51.728;8.748;2023-08-12T11:03:21;1.33;;;1.23;;
34924;SDS011;21130;51.728;8.748;2023-08-12T11:05:48;0.80;;;0.80;;
34924;SDS011;21130;51.728;8.748;2023-08-12T11:08:15;1.10;;;1.00;;
34924;SDS011;21130;51.728;8.748;2023-08-12T11:10:43;3.35;;;1.20;;
34924;SDS011;21130;51.728;8.748;2023-08-12T11:13:10;2.72;;;1.20;;
34924;SDS011;21130;51.728;8.748;2023-08-12T11:15:37;1.55;;;1.00;;
34924;SDS011;21130;51.728;8.748;2023-08-12T11:18:07;1.77;;;1.15;;
34924;SDS011;21130;51.728;8.748;2023-08-12T11:20:36;1.77;;;1.15;;
34924;SDS011;21130;51.728;8.748;2023-08-12T11:23:04;1.92;;;1.00;;
34924;SDS011;21130;51.728;8.748;2023-08-12T11:25:32;1.55;;;0.85;;
34924;SDS011;21130;51.728;8.748;2023-08-12T11:27:59;1.48;;;0.80;;
34924;SDS011;21130;51.728;8.748;2023-08-12T11:30:26;1.02;;;0.80;;
34924;SDS011;21130;51.728;8.748;2023-08-12T11:32:54;0.90;;;0.80;;
34924;SDS011;21130;51.728;8.748;2023-08-12T11:35:22;1.40;;;0.70;;
34924;SDS011;21130;51.728;8.748;2023-08-12T11:37:51;1.63;;;0.80;;
34924;SDS011;21130;51.728;8.748;2023-08-12T11:40:20;0.70;;;0.70;;
34924;SDS011;21130;51.728;8.748;2023-08-12T11:42:48;1.38;;;0.77;;
34924;SDS011;21130;51.728;8.748;2023-08-12T11:45:16;0.90;;;0.90;;
34924;SDS011;21130;51.728;8.748;2023-08-12T11:47:44;0.65;;;0.65;;
34924;SDS011;21130;51.728;8.748;2023-08-12T11:50:12;0.75;;;0.60;;
34924;SDS011;21130;51.728;8.748;2023-08-12T11:52:39;1.02;;;0.88;;
34924;SDS011;21130;51.728;8.748;2023-08-12T11:55:08;0.77;;;0.77;;
34924;SDS011;21130;51.728;8.748;2023-08-12T11:57:35;1.48;;;0.90;;
34924;SDS011;21130;51.728;8.748;2023-08-12T12:00:02;3.25;;;1.30;;
34924;SDS011;21130;51.728;8.748;2023-08-12T12:02:38;1.52;;;1.10;;
34924;SDS011;21130;51.728;8.748;2023-08-12T12:05:07;1.25;;;1.15;;
34924;SDS011;21130;51.728;8.748;2023-08-12T12:07:34;2.08;;;1.33;;
34924;SDS011;21130;51.728;8.748;2023-08-12T12:10:01;1.83;;;1.30;;
34924;SDS011;21130;51.728;8.748;2023-08-12T12:12:29;1.52;;;1.42;;
34924;SDS011;21130;51.728;8.748;2023-08-12T12:14:56;1.30;;;1.20;;
34924;SDS011;21130;51.728;8.748;2023-08-12T12:17:24;2.30;;;1.40;;
34924;SDS011;21130;51.728;8.748;2023-08-12T12:19:54;3.72;;;1.33;;
34924;SDS011;21130;51.728;8.748;2023-08-12T12:22:25;1.30;;;1.20;;
34924;SDS011;21130;51.728;8.748;2023-08-12T12:24:52;1.50;;;1.40;;
34924;SDS011;21130;51.728;8.748;2023-08-12T12:27:19;1.15;;;1.13;;
34924;SDS011;21130;51.728;8.748;2023-08-12T12:29:47;2.15;;;1.30;;
34924;SDS011;21130;51.728;8.748;2023-08-12T12:32:13;2.17;;;1.10;;
34924;SDS011;21130;51.728;8.748;2023-08-12T12:34:40;1.60;;;1.50;;
34924;SDS011;21130;51.728;8.748;2023-08-12T12:37:07;2.90;;;1.13;;
34924;SDS011;21130;51.728;8.748;2023-08-12T12:39:34;1.77;;;1.10;;
34924;SDS011;21130;51.728;8.748;2023-08-12T12:42:02;1.58;;;1.00;;
34924;SDS011;21130;51.728;8.748;2023-08-12T12:44:29;1.38;;;1.10;;
34924;SDS011;21130;51.728;8.748;2023-08-12T12:46:57;2.90;;;1.08;;
34924;SDS011;21130;51.728;8.748;2023-08-12T12:49:24;1.27;;;1.17;;
34924;SDS011;21130;51.728;8.748;2023-08-12T12:51:50;1.67;;;1.17;;
34924;SDS011;21130;51.728;8.748;2023-08-12T12:54:17;1.35;;;1.25;;
34924;SDS011;21130;51.728;8.748;2023-08-12T12:56:43;1.88;;;1.10;;
34924;SDS011;21130;51.728;8.748;2023-08-12T12:59:10;3.08;;;1.17;;
34924;SDS011;21130;51.728;8.748;2023-08-12T13:01:36;1.75;;;1.20;;
34924;SDS011;21130;51.728;8.748;2023-08-12T13:04:04;2.45;;;1.00;;
34924;SDS011;21130;51.728;8.748;2023-08-12T13:06:33;1.23;;;1.13;;
34924;SDS011;21130;51.728;8.748;2023-08-12T13:08:59;2.38;;;1.00;;
34924;SDS011;21130;51.728;8.748;2023-08-12T13:11:27;1.45;;;1.00;;
34924;SDS011;21130;51.728;8.748;2023-08-12T13:13:54;1.80;;;1.00;;
34924;SDS011;21130;51.728;8.748;2023-08-12T13:16:22;1.23;;;0.80;;
34924;SDS011;21130;51.728;8.748;2023-08-12T13:18:48;1.08;;;0.98;;
34924;SDS011;21130;51.728;8.748;2023-08-12T13:21:16;1.20;;;1.10;;
34924;SDS011;21130;51.728;8.748;2023-08-12T13:23:42;0.73;;;0.73;;
34924;SDS011;21130;51.728;8.748;2023-08-12T13:26:09;3.08;;;0.95;;
34924;SDS011;21130;51.728;8.748;2023-08-12T13:28:36;1.20;;;1.00;;
34924;SDS011;21130;51.728;8.748;2023-08-12T13:31:02;0.93;;;0.88;;
34924;SDS011;21130;51.728;8.748;2023-08-12T13:33:29;0.98;;;0.90;;
34924;SDS011;21130;51.728;8.748;2023-08-12T13:35:55;1.10;;;0.85;;
34924;SDS011;21130;51.728;8.748;2023-08-12T13:38:23;0.90;;;0.90;;
34924;SDS011;21130;51.728;8.748;2023-08-12T13:40:50;0.95;;;0.88;;
34924;SDS011;21130;51.728;8.748;2023-08-12T13:43:17;4.50;;;1.27;;
34924;SDS011;21130;51.728;8.748;2023-08-12T13:45:43;1.05;;;0.90;;
34924;SDS011;21130;51.728;8.748;2023-08-12T13:48:09;1.10;;;0.75;;
34924;SDS011;21130;51.728;8.748;2023-08-12T13:50:36;1.00;;;0.95;;
34924;SDS011;21130;51.728;8.748;2023-08-12T13:53:03;1.75;;;1.65;;
34924;SDS011;21130;51.728;8.748;2023-08-12T13:55:31;1.77;;;1.67;;
34924;SDS011;21130;51.728;8.748;2023-08-12T13:57:57;2.65;;;2.45;;
34924;SDS011;21130;51.728;8.748;2023-08-12T14:00:24;2.50;;;2.30;;
34924;SDS011;21130;51.728;8.748;2023-08-12T14:02:51;4.57;;;2.53;;
34924;SDS011;21130;51.728;8.748;2023-08-12T14:05:18;2.70;;;2.50;;
34924;SDS011;21130;51.728;8.748;2023-08-12T14:07:44;2.83;;;2.63;;
34924;SDS011;21130;51.728;8.748;2023-08-12T14:10:11;3.20;;;2.70;;
34924;SDS011;21130;51.728;8.748;2023-08-12T14:12:39;2.58;;;2.38;;
34924;SDS011;21130;51.728;8.748;2023-08-12T14:15:06;2.67;;;2.47;;
34924;SDS011;21130;51.728;8.748;2023-08-12T14:17:33;2.90;;;2.35;;
34924;SDS011;21130;51.728;8.748;2023-08-12T14:20:00;2.80;;;2.60;;
34924;SDS011;21130;51.728;8.748;2023-08-12T14:22:26;2.75;;;2.55;;
34924;SDS011;21130;51.728;8.748;2023-08-12T14:24:54;2.40;;;2.22;;
34924;SDS011;21130;51.728;8.748;2023-08-12T14:27:20;2.40;;;2.20;;
34924;SDS011;21130;51.728;8.748;2023-08-12T14:29:48;2.53;;;2.30;;
34924;SDS011;21130;51.728;8.748;2023-08-12T14:32:14;1.98;;;1.88;;
34924;SDS011;21130;51.728;8.748;2023-08-12T14:34:43;2.83;;;2.50;;
34924;SDS011;21130;51.728;8.748;2023-08-12T14:37:11;3.00;;;2.33;;
34924;SDS011;21130;51.728;8.748;2023-08-12T14:39:39;3.53;;;3.22;;
34924;SDS011;21130;51.728;8.748;2023-08-12T14:42:05;6.38;;;3.45;;
34924;SDS011;21130;51.728;8.748;2023-08-12T14:44:33;7.10;;;3.25;;
34924;SDS011;21130;51.728;8.748;2023-08-12T14:47:01;4.57;;;2.40;;
34924;SDS011;21130;51.728;8.748;2023-08-12T14:49:28;4.20;;;2.80;;
34924;SDS011;21130;51.728;8.748;2023-08-12T14:51:55;5.20;;;3.78;;
34924;SDS011;21130;51.728;8.748;2023-08-12T14:54:22;6.85;;;3.47;;
34924;SDS011;21130;51.728;8.748;2023-08-12T14:56:48;4.35;;;3.10;;
34924;SDS011;21130;51.728;8.748;2023-08-12T14:59:15;3.88;;;3.47;;
34924;SDS011;21130;51.728;8.748;2023-08-12T15:01:41;4.07;;;2.55;;
34924;SDS011;21130;51.728;8.748;2023-08-12T15:04:09;3.08;;;2.10;;